Time;durP1;ratioP1;P1;durP2;ratioP2;P2;SDS_P1;SDS_P2;PMS_P1;PMS_P2;Temp;Humidity;BMP_temperature;BMP_pressure;BME280_temperature;BME280_humidity;BME280_pressure;Samples;Min_cycle;Max_cycle;Signal;HPM_P1;HPM_P2
2022/05/28 00:02:17;;;;;;;10.30;6.55;;;;;;;22.20;51.11;94722.03;5014905;28;20230;-65
2022/05/28 00:04:43;;;;;;;9.68;6.70;;;;;;;22.22;51.23;94719.94;5003467;28;20234;-65
2022/05/28 00:07:08;;;;;;;9.75;6.75;;;;;;;22.02;52.04;94726.41;4998490;28;20230;-71
2022/05/28 00:09:34;;;;;;;8.38;6.18;;;;;;;22.13;52.01;94724.81;5005313;28;20230;-71
2022/05/28 00:11:59;;;;;;;8.80;6.03;;;;;;;21.98;52.23;94719.88;4995513;28;20228;-69
2022/05/28 00:14:25;;;;;;;8.73;6.03;;;;;;;22.01;52.47;94718.59;5005381;28;20201;-70
2022/05/28 00:16:50;;;;;;;9.20;6.85;;;;;;;22.02;52.09;94713.03;5000260;28;20331;-66
2022/05/28 00:19:16;;;;;;;9.13;6.35;;;;;;;22.06;51.72;94718.72;5003331;28;20219;-70
2022/05/28 00:21:42;;;;;;;7.20;6.13;;;;;;;21.81;52.49;94708.19;5013655;28;20228;-64
2022/05/28 00:24:08;;;;;;;7.50;6.63;;;;;;;21.62;52.85;94698.59;5024797;28;20320;-72
2022/05/28 00:26:33;;;;;;;10.52;6.57;;;;;;;21.65;52.97;94700.81;5022532;28;20205;-72
2022/05/28 00:28:58;;;;;;;11.63;6.05;;;;;;;21.68;52.72;94703.88;5033678;28;20228;-65
2022/05/28 00:31:24;;;;;;;8.55;6.35;;;;;;;21.86;52.32;94704.81;5033888;28;20221;-65
2022/05/28 00:33:49;;;;;;;10.80;6.20;;;;;;;21.44;53.49;94702.13;5048371;28;20230;-65
2022/05/28 00:36:15;;;;;;;12.80;6.20;;;;;;;21.51;53.19;94689.47;5023004;28;20225;-70
2022/05/28 00:38:42;;;;;;;6.80;5.60;;;;;;;21.60;52.71;94690.81;5050373;28;20226;-71
2022/05/28 00:41:09;;;;;;;8.55;6.30;;;;;;;21.57;52.81;94686.72;5028220;28;20216;-64
2022/05/28 00:43:38;;;;;;;8.48;6.35;;;;;;;21.52;52.81;94678.56;5034348;28;20261;-70
2022/05/28 00:46:07;;;;;;;10.38;7.18;;;;;;;21.58;52.48;94680.31;5033372;28;20236;-65
2022/05/28 00:48:37;;;;;;;11.93;7.88;;;;;;;21.57;52.24;94670.69;5012688;28;20333;-72
2022/05/28 00:51:20;;;;;;;9.45;7.50;;;;;;;21.51;52.19;94671.56;5023843;28;20221;-69
2022/05/28 00:53:46;;;;;;;10.00;7.63;;;;;;;21.37;52.47;94667.44;5032002;28;20223;-65
2022/05/28 00:56:12;;;;;;;11.55;7.72;;;;;;;21.43;52.43;94668.41;5051091;28;20733;-64
2022/05/28 00:58:38;;;;;;;12.23;7.90;;;;;;;21.41;52.42;94665.97;5043209;28;20225;-65
2022/05/28 01:01:06;;;;;;;10.55;7.90;;;;;;;21.36;52.70;94652.44;5039600;28;20242;-69
2022/05/28 01:03:45;;;;;;;9.65;7.32;;;;;;;21.37;52.87;94664.75;5037706;28;20237;-69
2022/05/28 01:06:27;;;;;;;10.93;7.13;;;;;;;21.33;53.12;94664.41;5039942;28;20225;-66
2022/05/28 01:09:08;;;;;;;7.97;7.03;;;;;;;21.29;53.31;94676.59;5022118;28;20727;-67
2022/05/28 01:11:59;;;;;;;8.57;6.40;;;;;;;20.86;55.06;94690.91;5036690;28;20201;-64
2022/05/28 01:14:51;;;;;;;6.60;5.97;;;;;;;21.08;54.37;94699.28;5025974;28;20247;-65
2022/05/28 01:17:55;;;;;;;7.30;5.80;;;;;;;21.16;53.99;94700.81;4942940;28;20247;-65
2022/05/28 01:20:30;;;;;;;10.68;6.00;;;;;;;21.21;53.53;94697.47;4850441;29;20235;-66
2022/05/28 01:23:02;;;;;;;11.38;5.97;;;;;;;21.12;53.29;94708.50;4848915;29;21266;-72
2022/05/28 01:25:48;;;;;;;7.10;5.60;;;;;;;21.08;53.05;94736.69;4850957;29;20231;-71
2022/05/28 01:28:17;;;;;;;9.13;4.63;;;;;;;21.07;51.99;94769.81;4853327;29;20226;-72
2022/05/28 01:30:45;;;;;;;6.65;4.43;;;;;;;20.92;52.07;94761.34;4872077;29;20236;-70
2022/05/28 01:33:14;;;;;;;5.88;4.20;;;;;;;20.81;51.70;94756.75;4866398;29;20258;-68
2022/05/28 01:35:41;;;;;;;7.85;4.60;;;;;;;20.78;51.49;94763.34;4849871;29;20279;-67
2022/05/28 01:38:11;;;;;;;7.00;4.45;;;;;;;20.83;51.40;94766.19;4850203;29;20223;-67
2022/05/28 01:40:38;;;;;;;9.15;4.38;;;;;;;20.90;51.01;94752.72;4850373;29;20279;-69
2022/05/28 01:43:12;;;;;;;8.63;4.75;;;;;;;20.93;51.00;94763.00;4863218;29;20287;-71
2022/05/28 01:45:41;;;;;;;8.90;4.63;;;;;;;20.83;51.28;94762.69;4866389;29;20238;-65
2022/05/28 01:48:08;;;;;;;7.07;4.82;;;;;;;20.72;51.61;94748.22;4878313;29;20242;-69
2022/05/28 01:50:45;;;;;;;7.22;4.68;;;;;;;20.67;51.67;94735.50;4907592;28;20307;-68
2022/05/28 01:54:06;;;;;;;7.65;5.00;;;;;;;20.75;51.78;94746.94;4956379;28;20204;-66
2022/05/28 01:56:01;;;;;;;7.13;4.35;;;;;;;20.79;51.79;94748.13;5031816;28;20229;-71
2022/05/28 01:58:26;;;;;;;8.57;5.05;;;;;;;20.85;51.70;94752.56;5024665;28;20222;-64
2022/05/28 02:00:52;;;;;;;7.70;5.15;;;;;;;20.81;51.91;94744.19;5016609;28;20233;-70
2022/05/28 02:03:18;;;;;;;6.60;4.95;;;;;;;20.87;51.52;94745.16;5023433;28;20226;-65
2022/05/28 02:05:43;;;;;;;12.32;5.53;;;;;;;20.82;51.74;94739.66;5051798;28;20226;-65
2022/05/28 02:08:09;;;;;;;6.70;5.18;;;;;;;20.81;51.86;94752.22;5013128;28;20206;-68
2022/05/28 02:10:39;;;;;;;8.32;5.38;;;;;;;20.70;52.18;94753.75;5019273;28;20244;-65
2022/05/28 02:13:11;;;;;;;10.18;5.75;;;;;;;20.54;53.07;94748.19;5011504;28;20222;-69
2022/05/28 02:15:48;;;;;;;9.77;5.72;;;;;;;20.68;52.52;94747.81;5004371;28;20226;-66
2022/05/28 02:18:26;;;;;;;7.82;5.18;;;;;;;20.73;52.41;94752.50;5022454;28;20249;-71
2022/05/28 02:21:14;;;;;;;7.95;5.03;;;;;;;20.72;52.48;94750.06;5048325;28;20244;-71
2022/05/28 02:23:59;;;;;;;7.15;5.50;;;;;;;20.74;52.45;94758.66;5015281;28;20271;-68
2022/05/28 02:26:34;;;;;;;8.27;5.70;;;;;;;20.78;51.59;94750.00;5025751;28;20198;-65
2022/05/28 02:29:04;;;;;;;6.32;5.20;;;;;;;20.72;52.06;94742.06;5012947;28;20300;-72
2022/05/28 02:31:32;;;;;;;9.80;5.78;;;;;;;20.74;51.65;94747.97;5031477;28;20316;-70
2022/05/28 02:33:59;;;;;;;7.05;5.47;;;;;;;20.79;51.49;94750.81;5004937;28;20225;-71
2022/05/28 02:36:25;;;;;;;5.90;5.10;;;;;;;20.88;50.42;94747.63;5014119;28;20222;-69
2022/05/28 02:38:51;;;;;;;9.02;5.00;;;;;;;20.82;50.51;94735.16;5021304;28;20225;-64
2022/05/28 02:41:17;;;;;;;7.25;5.10;;;;;;;20.82;50.45;94743.19;5022149;28;20221;-64
2022/05/28 02:43:43;;;;;;;8.20;4.97;;;;;;;20.89;49.84;94745.75;5028610;28;20228;-65
2022/05/28 02:46:09;;;;;;;6.68;4.80;;;;;;;20.88;49.33;94733.44;5014524;28;20221;-71
2022/05/28 02:48:35;;;;;;;9.60;5.00;;;;;;;20.93;48.95;94730.94;5016848;28;20213;-65
2022/05/28 02:51:06;;;;;;;7.03;4.10;;;;;;;20.95;48.68;94710.13;5015991;28;20223;-69
2022/05/28 02:53:32;;;;;;;7.70;4.63;;;;;;;20.97;48.27;94718.75;5015494;28;20208;-64
2022/05/28 02:55:57;;;;;;;8.40;3.83;;;;;;;21.01;47.46;94719.09;5017556;28;20614;-65
2022/05/28 02:58:23;;;;;;;9.13;3.88;;;;;;;20.97;47.54;94713.41;5013418;28;20226;-64
2022/05/28 03:00:49;;;;;;;9.13;4.20;;;;;;;20.95;47.78;94717.31;5011984;28;20233;-69
2022/05/28 03:03:19;;;;;;;8.38;4.40;;;;;;;20.97;47.79;94729.44;5014500;28;20267;-69
2022/05/28 03:05:50;;;;;;;7.00;4.63;;;;;;;20.89;48.20;94729.72;5013961;28;20248;-71
2022/05/28 03:08:16;;;;;;;6.00;4.28;;;;;;;20.75;48.70;94731.72;5017939;28;20316;-69
2022/05/28 03:10:42;;;;;;;5.10;4.28;;;;;;;20.80;48.82;94731.06;5029380;28;20229;-71
2022/05/28 03:13:07;;;;;;;8.18;4.50;;;;;;;20.78;48.51;94717.94;5032644;28;20214;-71
2022/05/28 03:15:33;;;;;;;5.95;4.60;;;;;;;20.78;49.13;94722.47;5022671;28;20232;-64
2022/05/28 03:17:59;;;;;;;8.52;5.05;;;;;;;20.84;49.23;94722.38;5030645;28;20225;-65
2022/05/28 03:20:27;;;;;;;6.65;4.32;;;;;;;20.83;49.18;94723.41;5016925;28;20213;-69
2022/05/28 03:22:52;;;;;;;6.50;4.15;;;;;;;20.94;48.71;94729.88;5029541;28;20293;-69
2022/05/28 03:25:18;;;;;;;5.35;3.83;;;;;;;20.92;48.62;94729.28;5024627;28;20401;-68
2022/05/28 03:27:43;;;;;;;6.55;4.13;;;;;;;20.93;48.44;94738.94;5018948;28;20245;-65
2022/05/28 03:30:09;;;;;;;6.32;3.67;;;;;;;21.06;47.44;94725.44;5024786;28;20229;-65
2022/05/28 03:32:35;;;;;;;5.53;4.15;;;;;;;21.09;47.31;94729.47;5022606;28;20202;-65
2022/05/28 03:35:01;;;;;;;6.22;3.83;;;;;;;21.07;48.26;94724.38;5045493;28;20213;-69
2022/05/28 03:37:27;;;;;;;8.60;4.28;;;;;;;21.08;47.55;94731.34;5030150;28;20225;-71
2022/05/28 03:39:52;;;;;;;5.40;4.32;;;;;;;21.07;47.25;94712.88;5011824;28;20229;-65
2022/05/28 03:42:18;;;;;;;6.10;4.18;;;;;;;21.15;48.18;94716.06;5032353;28;20226;-69
2022/05/28 03:44:43;;;;;;;8.80;4.55;;;;;;;21.24;48.30;94719.22;5019322;28;20307;-71
2022/05/28 03:47:09;;;;;;;5.60;3.63;;;;;;;21.13;48.00;94717.31;5022673;28;20229;-69
2022/05/28 03:49:38;;;;;;;8.95;3.78;;;;;;;21.17;47.71;94713.16;5018309;28;20229;-65
2022/05/28 03:52:05;;;;;;;7.22;4.13;;;;;;;21.30;48.00;94717.50;5033122;28;20255;-65
2022/05/28 03:54:31;;;;;;;4.40;3.63;;;;;;;21.27;48.05;94708.06;5047372;28;20261;-68
2022/05/28 03:57:05;;;;;;;7.10;4.40;;;;;;;21.30;48.04;94707.66;5022850;28;20221;-69
2022/05/28 03:59:32;;;;;;;6.38;4.00;;;;;;;21.28;48.04;94701.72;5014798;28;20258;-70
2022/05/28 04:01:57;;;;;;;9.18;4.63;;;;;;;21.41;48.10;94700.75;5022329;28;20214;-65
2022/05/28 04:04:23;;;;;;;7.35;4.30;;;;;;;21.43;47.77;94689.81;5022338;28;20225;-64
2022/05/28 04:06:48;;;;;;;9.48;4.25;;;;;;;21.57;47.61;94688.56;5018542;28;20241;-65
2022/05/28 04:09:14;;;;;;;10.23;4.85;;;;;;;21.53;47.66;94698.91;5033288;28;20261;-65
2022/05/28 04:11:39;;;;;;;6.22;4.25;;;;;;;21.64;47.59;94694.66;5025187;28;20328;-65
2022/05/28 04:14:05;;;;;;;7.00;4.10;;;;;;;21.54;47.84;94687.19;5024873;28;20276;-71
2022/05/28 04:16:32;;;;;;;7.85;4.47;;;;;;;21.53;47.89;94692.75;5023923;28;20244;-70
2022/05/28 04:18:58;;;;;;;7.07;4.22;;;;;;;21.62;47.74;94691.38;5036658;28;20218;-69
2022/05/28 04:21:24;;;;;;;8.05;4.10;;;;;;;21.61;47.56;94687.06;5035566;28;20278;-63
2022/05/28 04:23:49;;;;;;;10.80;5.03;;;;;;;21.55;48.20;94704.06;5024953;28;20970;-68
2022/05/28 04:26:15;;;;;;;8.23;5.15;;;;;;;21.46;47.92;94719.59;5034108;28;20255;-69
2022/05/28 04:28:41;;;;;;;8.60;4.60;;;;;;;21.34;48.95;94751.59;5036199;28;20313;-69
2022/05/28 04:31:06;;;;;;;8.23;5.00;;;;;;;21.35;49.15;94782.66;5033106;28;21260;-66
2022/05/28 04:33:32;;;;;;;14.93;4.55;;;;;;;21.22;48.24;94764.09;5034917;28;20244;-65
2022/05/28 04:35:57;;;;;;;15.15;4.30;;;;;;;21.23;47.90;94722.16;5020790;28;20221;-64
2022/05/28 04:38:23;;;;;;;10.68;3.88;;;;;;;21.28;47.49;94700.91;5033625;28;20309;-69
2022/05/28 04:40:49;;;;;;;9.70;4.22;;;;;;;21.29;47.45;94686.47;5019479;28;20260;-63
2022/05/28 04:43:15;;;;;;;13.25;4.90;;;;;;;21.32;49.85;94678.00;5017868;28;20225;-70
2022/05/28 04:45:40;;;;;;;14.80;5.43;;;;;;;21.32;51.81;94678.81;5027196;28;20225;-64
2022/05/28 04:48:06;;;;;;;9.35;4.63;;;;;;;21.26;53.13;94690.41;5014822;28;20237;-65
2022/05/28 04:50:34;;;;;;;7.97;4.95;;;;;;;21.15;53.89;94694.66;5032290;28;20263;-68
2022/05/28 04:53:00;;;;;;;9.63;5.20;;;;;;;21.08;55.28;94723.31;5050944;28;20798;-65
2022/05/28 04:55:25;;;;;;;11.55;4.95;;;;;;;20.76;54.28;94732.53;5047497;28;20229;-64
2022/05/28 04:57:53;;;;;;;12.43;4.63;;;;;;;20.42;54.66;94745.38;5033419;28;20217;-65
2022/05/28 05:00:21;;;;;;;11.85;4.80;;;;;;;20.56;55.71;94743.44;5030661;28;20226;-65
2022/05/28 05:02:47;;;;;;;9.15;4.82;;;;;;;20.36;56.91;94740.91;5031674;28;20229;-65
2022/05/28 05:05:13;;;;;;;8.82;5.15;;;;;;;20.30;58.78;94753.28;5021058;28;20198;-63
2022/05/28 05:07:38;;;;;;;10.57;4.97;;;;;;;20.30;59.16;94749.81;5032922;28;20312;-65
2022/05/28 05:10:05;;;;;;;9.20;5.30;;;;;;;20.32;59.36;94769.09;5032383;28;20229;-65
2022/05/28 05:12:30;;;;;;;7.88;5.10;;;;;;;20.28;58.88;94766.84;5024971;28;20379;-68
2022/05/28 05:14:56;;;;;;;11.15;5.90;;;;;;;20.41;59.90;94771.25;5027705;28;20285;-68
2022/05/28 05:17:21;;;;;;;12.88;5.85;;;;;;;20.33;59.02;94752.03;5051078;28;20233;-68
2022/05/28 05:19:47;;;;;;;8.75;6.25;;;;;;;20.36;58.01;94741.72;5033969;28;20217;-66
2022/05/28 05:22:12;;;;;;;9.35;6.38;;;;;;;20.41;57.83;94744.56;5022493;28;20229;-67
2022/05/28 05:24:38;;;;;;;10.43;6.20;;;;;;;20.49;58.13;94741.59;5011382;28;20249;-68
2022/05/28 05:27:04;;;;;;;10.25;6.20;;;;;;;20.51;57.78;94751.28;5011518;28;20228;-66
2022/05/28 05:29:30;;;;;;;5.90;5.30;;;;;;;20.52;57.78;94748.34;5016216;28;20237;-68
2022/05/28 05:31:55;;;;;;;11.10;7.30;;;;;;;20.45;57.86;94748.44;5022434;28;20209;-69
2022/05/28 05:34:21;;;;;;;11.52;6.65;;;;;;;20.40;58.04;94761.63;5063287;28;20222;-64
2022/05/28 05:36:47;;;;;;;8.52;6.60;;;;;;;20.26;59.02;94755.59;5021757;28;20217;-64
2022/05/28 05:39:12;;;;;;;11.05;6.63;;;;;;;20.47;58.12;94764.22;5049129;28;20299;-64
2022/05/28 05:41:42;;;;;;;11.35;6.85;;;;;;;20.40;58.15;94768.81;5046647;28;20267;-64
2022/05/28 05:44:09;;;;;;;11.05;6.63;;;;;;;20.70;56.99;94782.34;5019879;28;20230;-64
2022/05/28 05:46:38;;;;;;;13.00;6.68;;;;;;;21.06;57.01;94772.72;5035135;28;20278;-66
2022/05/28 05:49:04;;;;;;;15.07;7.15;;;;;;;21.14;57.33;94759.03;5050201;28;20229;-62
2022/05/28 05:51:29;;;;;;;10.90;7.15;;;;;;;21.15;58.13;94758.84;5016226;28;20229;-63
2022/05/28 05:53:55;;;;;;;8.38;7.13;;;;;;;21.33;57.48;94757.16;5019861;28;20287;-65
2022/05/28 05:56:20;;;;;;;14.88;7.43;;;;;;;21.47;55.74;94756.00;5036057;28;20237;-64
2022/05/28 05:58:46;;;;;;;10.57;7.63;;;;;;;21.69;54.16;94742.94;5044809;28;20202;-63
2022/05/28 06:01:11;;;;;;;9.60;7.15;;;;;;;21.54;55.94;94751.41;5045350;28;20238;-64
2022/05/28 06:03:44;;;;;;;11.43;7.30;;;;;;;21.55;55.43;94747.66;5016622;28;20294;-65
2022/05/28 06:06:12;;;;;;;12.73;7.53;;;;;;;21.52;55.88;94748.13;5029581;28;20345;-65
2022/05/28 06:08:38;;;;;;;11.73;7.78;;;;;;;21.54;55.16;94740.69;5029958;28;20205;-63
2022/05/28 06:11:03;;;;;;;12.38;7.95;;;;;;;21.71;55.34;94740.88;5048905;28;20213;-64
2022/05/28 06:13:29;;;;;;;8.80;7.55;;;;;;;21.68;54.34;94735.97;5012405;28;20226;-65
2022/05/28 06:15:54;;;;;;;9.88;7.65;;;;;;;21.56;54.77;94735.91;5044370;28;20252;-63
2022/05/28 06:18:23;;;;;;;14.25;6.82;;;;;;;21.61;54.08;94726.41;5020130;28;20237;-68
2022/05/28 06:20:49;;;;;;;14.05;8.05;;;;;;;21.64;53.95;94723.28;5022010;28;20233;-65
2022/05/28 06:23:16;;;;;;;11.27;7.38;;;;;;;21.66;54.11;94731.88;5038900;28;20255;-64
2022/05/28 06:25:41;;;;;;;11.05;7.18;;;;;;;21.66;54.39;94726.53;5022085;28;20236;-67
2022/05/28 06:28:07;;;;;;;13.88;7.70;;;;;;;21.83;54.01;94721.34;5048041;28;20217;-68
2022/05/28 06:30:33;;;;;;;12.65;7.68;;;;;;;22.10;53.98;94708.34;5021280;28;20225;-63
2022/05/28 06:32:59;;;;;;;12.05;7.85;;;;;;;22.06;55.40;94715.25;5011682;28;20233;-67
2022/05/28 06:35:25;;;;;;;11.70;7.60;;;;;;;21.92;55.59;94710.09;5032742;28;20235;-67
2022/05/28 06:37:50;;;;;;;11.25;7.05;;;;;;;22.05;55.89;94714.41;5027353;28;20510;-68
2022/05/28 06:40:16;;;;;;;12.43;7.10;;;;;;;22.32;55.53;94708.63;4980181;28;20234;-68
2022/05/28 06:42:42;;;;;;;7.85;6.80;;;;;;;22.26;54.41;94705.03;4989422;28;20234;-68
2022/05/28 06:45:13;;;;;;;12.20;6.97;;;;;;;22.45;52.95;94703.06;4999294;28;20232;-68
2022/05/28 06:47:40;;;;;;;11.18;6.63;;;;;;;22.56;52.28;94691.53;4997135;28;20281;-64
2022/05/28 06:52:50;;;;;;;7.82;6.13;;;;;;;22.69;51.12;94685.09;5010585;28;20222;-63
2022/05/28 06:55:15;;;;;;;8.45;6.65;;;;;;;22.50;51.71;94673.69;5010372;28;20218;-67
2022/05/28 06:57:42;;;;;;;10.05;6.53;;;;;;;22.63;50.64;94668.09;4996491;28;20222;-64
2022/05/28 07:00:08;;;;;;;9.90;6.13;;;;;;;22.69;50.12;94666.34;5022996;28;20564;-67
2022/05/28 07:02:36;;;;;;;12.15;5.95;;;;;;;22.75;50.64;94659.22;5022454;28;20223;-63
2022/05/28 07:05:02;;;;;;;10.85;5.30;;;;;;;22.93;48.61;94651.00;4991905;28;20257;-65
2022/05/28 07:07:28;;;;;;;8.27;5.05;;;;;;;23.07;47.84;94657.78;4993518;28;20247;-68
2022/05/28 07:09:53;;;;;;;6.93;4.75;;;;;;;23.07;46.63;94657.78;5026700;28;20226;-65
2022/05/28 07:12:19;;;;;;;7.90;4.70;;;;;;;23.22;46.57;94651.06;5012469;28;20222;-69
2022/05/28 07:14:44;;;;;;;6.97;3.90;;;;;;;23.28;46.82;94652.78;5030304;28;20221;-64
2022/05/28 07:17:09;;;;;;;6.90;4.28;;;;;;;23.11;45.32;94642.81;5035042;28;20216;-64
2022/05/28 07:19:35;;;;;;;5.78;4.30;;;;;;;23.18;46.05;94636.53;5005083;28;20229;-68
2022/05/28 07:22:00;;;;;;;9.32;4.57;;;;;;;23.30;46.87;94630.03;5011000;28;20226;-67
2022/05/28 07:24:26;;;;;;;10.27;4.75;;;;;;;23.41;45.46;94636.41;5000562;28;20231;-64
2022/05/28 07:26:52;;;;;;;17.88;5.60;;;;;;;23.22;46.02;94638.47;5012150;28;20326;-63
2022/05/28 07:29:18;;;;;;;13.23;5.22;;;;;;;23.39;46.68;94635.00;5000540;28;20205;-65
2022/05/28 07:31:43;;;;;;;7.50;4.38;;;;;;;23.60;45.70;94639.69;5013641;28;20222;-64
2022/05/28 07:34:09;;;;;;;11.15;5.43;;;;;;;23.60;45.71;94628.94;5013684;28;20227;-68
2022/05/28 07:36:35;;;;;;;9.02;5.05;;;;;;;23.74;45.77;94624.94;5000115;28;20237;-64
2022/05/28 07:39:01;;;;;;;7.45;4.85;;;;;;;23.86;45.92;94624.03;5021995;28;20324;-64
2022/05/28 07:41:27;;;;;;;8.30;5.28;;;;;;;23.86;45.56;94626.72;5035163;28;20292;-68
2022/05/28 07:43:54;;;;;;;5.53;4.63;;;;;;;23.91;45.32;94619.56;5024723;28;20239;-63
2022/05/28 07:46:22;;;;;;;6.88;5.00;;;;;;;23.94;45.15;94619.06;5023464;28;20218;-68
2022/05/28 07:48:49;;;;;;;8.73;4.90;;;;;;;24.23;45.43;94624.34;5034515;28;20222;-68
2022/05/28 07:51:15;;;;;;;7.00;4.78;;;;;;;24.31;46.11;94626.63;5037663;28;20229;-63
2022/05/28 07:53:41;;;;;;;10.98;5.53;;;;;;;24.43;47.40;94626.50;5058363;28;20225;-64
2022/05/28 07:56:07;;;;;;;10.48;5.65;;;;;;;24.61;46.00;94623.56;5036778;28;20201;-63
2022/05/28 07:58:34;;;;;;;10.43;5.78;;;;;;;24.72;45.36;94621.00;5027939;28;20232;-64
2022/05/28 08:01:00;;;;;;;9.40;5.03;;;;;;;24.84;44.24;94610.94;5032057;28;20276;-68
2022/05/28 08:03:26;;;;;;;8.60;5.40;;;;;;;24.90;44.22;94609.94;5027395;28;20222;-67
2022/05/28 08:05:53;;;;;;;10.02;4.97;;;;;;;25.13;43.75;94616.09;5021920;28;20222;-68
2022/05/28 08:08:21;;;;;;;9.65;5.85;;;;;;;25.36;42.70;94604.28;5024820;28;20201;-68
2022/05/28 08:10:48;;;;;;;10.93;5.35;;;;;;;25.37;41.84;94592.44;5039247;28;20233;-67
2022/05/28 08:13:16;;;;;;;7.45;4.95;;;;;;;25.43;41.50;94592.25;5034073;28;20218;-68
2022/05/28 08:15:43;;;;;;;11.20;4.60;;;;;;;25.43;41.72;94592.25;5022765;28;20269;-69
2022/05/28 08:18:11;;;;;;;7.93;4.60;;;;;;;25.46;42.30;94602.50;5008892;28;20310;-69
2022/05/28 08:23:22;;;;;;;9.80;4.85;;;;;;;25.84;41.01;94598.00;5039626;28;20228;-64
2022/05/28 08:25:48;;;;;;;9.80;5.00;;;;;;;25.84;39.97;94591.81;4999071;28;20271;-69
2022/05/28 08:28:16;;;;;;;9.88;4.70;;;;;;;25.83;40.49;94595.56;5014014;28;20253;-69
2022/05/28 08:30:42;;;;;;;7.20;4.45;;;;;;;25.87;39.15;94597.47;4999882;28;20298;-64
2022/05/28 08:33:09;;;;;;;10.13;4.97;;;;;;;25.90;39.43;94597.00;5013252;28;20341;-69
2022/05/28 08:35:36;;;;;;;14.25;4.82;;;;;;;25.85;39.52;94594.25;5003361;28;20215;-68
2022/05/28 08:38:09;;;;;;;7.38;3.83;;;;;;;25.77;39.36;94591.19;5024311;28;20296;-69
2022/05/28 08:40:44;;;;;;;7.82;3.72;;;;;;;26.01;38.91;94595.19;5013969;28;20230;-63
2022/05/28 08:43:14;;;;;;;5.78;4.32;;;;;;;26.11;39.35;94594.44;5016879;28;20325;-68
2022/05/28 08:45:39;;;;;;;9.25;4.75;;;;;;;26.14;38.12;94592.06;5037191;28;20232;-67
2022/05/28 08:48:06;;;;;;;18.48;5.15;;;;;;;25.95;38.40;94586.25;5027354;28;20229;-67
2022/05/28 08:50:40;;;;;;;11.50;5.60;;;;;;;26.07;38.55;94579.88;5049074;28;20213;-68
2022/05/28 08:53:13;;;;;;;8.10;4.43;;;;;;;26.10;38.15;94579.34;5020369;28;20201;-67
2022/05/28 08:55:45;;;;;;;10.20;5.53;;;;;;;26.16;38.75;94587.19;5033476;28;20255;-63
2022/05/28 08:58:15;;;;;;;10.90;4.40;;;;;;;26.32;38.20;94588.09;5046688;28;20225;-69
2022/05/28 09:00:48;;;;;;;8.88;4.85;;;;;;;26.43;38.31;94588.16;5032787;28;20260;-64
2022/05/28 09:03:22;;;;;;;8.63;4.88;;;;;;;26.43;37.99;94582.78;5032467;28;20295;-69
2022/05/28 09:06:04;;;;;;;9.50;4.82;;;;;;;26.58;37.93;94588.28;5017809;28;20304;-63
2022/05/28 09:08:45;;;;;;;8.13;5.05;;;;;;;26.66;38.23;94586.97;5016999;28;20308;-68
2022/05/28 09:11:13;;;;;;;8.55;5.05;;;;;;;26.68;37.56;94585.63;5021145;28;20293;-67
2022/05/28 09:13:41;;;;;;;10.73;4.82;;;;;;;26.74;36.85;94583.78;5032443;28;20222;-67
2022/05/28 09:16:19;;;;;;;11.77;5.35;;;;;;;26.92;36.31;94575.22;5035694;28;20225;-67
2022/05/28 09:18:46;;;;;;;9.18;5.00;;;;;;;26.99;36.69;94569.56;5054553;28;20257;-63
2022/05/28 09:21:15;;;;;;;7.70;4.78;;;;;;;26.93;37.28;94566.03;5051924;28;20250;-64
2022/05/28 09:23:47;;;;;;;10.52;4.75;;;;;;;27.03;37.25;94557.97;5034260;28;20255;-66
2022/05/28 09:26:20;;;;;;;9.95;5.65;;;;;;;27.25;36.66;94563.16;5026557;28;20413;-65
2022/05/28 09:29:01;;;;;;;10.38;5.32;;;;;;;27.31;36.66;94552.38;5020650;28;20284;-65
2022/05/28 09:31:39;;;;;;;9.10;5.80;;;;;;;27.41;35.64;94558.59;5032602;28;20222;-68
2022/05/28 09:34:20;;;;;;;10.68;5.55;;;;;;;27.43;35.93;94542.97;5025399;28;20233;-68
2022/05/28 09:37:20;;;;;;;9.18;5.40;;;;;;;27.56;35.95;94540.78;5036016;28;20233;-69
2022/05/28 09:39:50;;;;;;;11.65;6.00;;;;;;;27.80;35.79;94535.66;5017261;28;20830;-62
2022/05/28 09:42:49;;;;;;;9.30;4.82;;;;;;;28.17;35.74;94534.56;5016462;28;20248;-68
2022/05/28 09:45:27;;;;;;;8.77;4.88;;;;;;;28.52;36.39;94525.56;5050057;28;20333;-66
2022/05/28 09:47:53;;;;;;;10.63;5.75;;;;;;;28.90;35.12;94526.75;5049654;28;20225;-67
2022/05/28 09:50:24;;;;;;;8.25;4.93;;;;;;;28.91;33.97;94527.56;5013013;28;20208;-68
2022/05/28 09:56:14;;;;;;;10.40;5.93;;;;;;;29.05;33.79;94516.97;5042336;28;20556;-63
2022/05/28 09:58:40;;;;;;;8.88;5.20;;;;;;;29.08;35.22;94511.78;4946333;28;20240;-67
2022/05/28 10:01:22;;;;;;;13.52;5.70;;;;;;;29.14;34.63;94518.00;4936635;28;20225;-64
2022/05/28 10:06:35;;;;;;;10.80;5.53;;;;;;;29.09;34.03;94505.28;4938305;28;20367;-63
2022/05/28 10:09:17;;;;;;;12.15;6.22;;;;;;;28.80;34.86;94505.16;4935228;28;20335;-67
2022/05/28 10:12:23;;;;;;;7.93;5.57;;;;;;;28.70;35.58;94507.91;4925462;28;20288;-67
2022/05/28 10:15:20;;;;;;;11.05;5.80;;;;;;;28.62;35.67;94498.47;4918287;28;20312;-65
2022/05/28 10:18:09;;;;;;;11.50;6.20;;;;;;;28.77;35.39;94503.00;4859603;29;20249;-66
2022/05/28 10:20:35;;;;;;;9.35;5.22;;;;;;;28.78;35.32;94505.41;4810327;29;20337;-65
2022/05/28 10:23:10;;;;;;;10.93;5.85;;;;;;;28.46;34.52;94495.03;4811476;29;20241;-68
2022/05/28 10:25:48;;;;;;;11.90;5.85;;;;;;;28.40;35.29;94490.69;4822434;29;20233;-67
2022/05/28 10:28:25;;;;;;;9.18;5.53;;;;;;;28.37;36.32;94488.53;4795969;29;20245;-67
2022/05/28 10:30:51;;;;;;;8.30;6.03;;;;;;;28.31;36.34;94487.75;4796609;29;20624;-67
2022/05/28 10:33:21;;;;;;;10.80;6.22;;;;;;;28.20;36.78;94480.78;4807031;29;20237;-67
2022/05/28 10:35:47;;;;;;;10.00;6.22;;;;;;;28.25;36.63;94477.22;4822407;29;20295;-66
2022/05/28 10:38:34;;;;;;;10.20;6.05;;;;;;;28.20;37.06;94477.22;4833318;29;20223;-64
2022/05/28 10:41:02;;;;;;;9.20;6.35;;;;;;;28.36;36.17;94476.09;4829949;29;20283;-65
2022/05/28 10:43:29;;;;;;;11.73;6.30;;;;;;;28.36;37.04;94482.34;4846439;29;20243;-63
2022/05/28 10:46:03;;;;;;;9.15;6.72;;;;;;;28.48;36.61;94478.53;4829763;29;20243;-64
2022/05/28 10:48:40;;;;;;;8.18;5.80;;;;;;;28.77;36.40;94465.94;4846324;29;20358;-63
2022/05/28 10:51:31;;;;;;;10.45;6.13;;;;;;;28.93;34.99;94474.78;4814829;29;20242;-66
2022/05/28 10:54:24;;;;;;;14.10;6.95;;;;;;;29.31;34.81;94466.97;4868353;29;20247;-65
2022/05/28 10:57:11;;;;;;;7.97;5.68;;;;;;;29.71;33.06;94472.34;4950465;28;20271;-64
2022/05/28 10:59:41;;;;;;;10.75;6.45;;;;;;;30.06;32.87;94466.56;5049709;28;20205;-63
2022/05/28 11:02:31;;;;;;;7.38;5.20;;;;;;;30.44;31.87;94476.75;5048600;28;20214;-65
2022/05/28 12:01:46;;;;;;;9.25;5.97;;;;;;;27.17;35.72;94411.75;5017974;28;20582;-63
2022/05/28 12:04:12;;;;;;;10.20;5.85;;;;;;;26.95;36.25;94403.91;4974605;28;20310;-63
2022/05/28 12:06:42;;;;;;;8.68;5.80;;;;;;;27.15;36.80;94411.19;4994346;28;21374;-65
2022/05/28 12:09:18;;;;;;;12.38;6.25;;;;;;;26.97;37.56;94405.25;4995034;28;20313;-64
2022/05/28 12:12:19;;;;;;;13.05;6.03;;;;;;;26.83;38.26;94404.16;5008885;28;20228;-64
2022/05/28 12:14:48;;;;;;;13.57;6.13;;;;;;;26.77;39.15;94416.81;5007506;28;20228;-68
2022/05/28 12:17:17;;;;;;;13.63;6.35;;;;;;;26.70;39.24;94410.88;4984476;28;20223;-66
2022/05/28 12:20:06;;;;;;;10.55;5.90;;;;;;;26.50;39.75;94419.69;4990306;28;20311;-64
2022/05/28 12:22:39;;;;;;;11.05;5.43;;;;;;;26.24;40.46;94415.31;4974489;28;20285;-66
2022/05/28 12:25:11;;;;;;;11.13;6.72;;;;;;;26.12;41.75;94412.84;4974894;28;20226;-69
2022/05/28 12:27:54;;;;;;;10.60;6.00;;;;;;;26.20;42.50;94411.53;4995671;28;20422;-66
2022/05/28 12:30:48;;;;;;;11.27;5.95;;;;;;;26.23;43.45;94413.69;4988230;28;20210;-66
2022/05/28 12:33:51;;;;;;;11.40;5.75;;;;;;;25.79;46.06;94412.09;4978173;28;20218;-65
2022/05/28 12:36:16;;;;;;;12.10;6.20;;;;;;;25.81;46.39;94422.63;5004106;28;20632;-68
2022/05/28 12:39:03;;;;;;;9.15;6.00;;;;;;;25.80;47.15;94412.94;4998283;28;20496;-68
2022/05/28 12:41:33;;;;;;;10.80;6.20;;;;;;;25.74;47.51;94425.53;4992142;28;20230;-68
2022/05/28 12:44:17;;;;;;;15.82;6.80;;;;;;;25.70;48.36;94427.97;5007320;28;20218;-67
2022/05/28 12:46:54;;;;;;;8.75;6.47;;;;;;;25.44;49.17;94426.16;4997299;28;20292;-63
2022/05/28 12:49:25;;;;;;;14.80;7.45;;;;;;;25.35;50.29;94430.44;4999369;28;20686;-65
2022/05/28 12:52:22;;;;;;;10.00;6.22;;;;;;;25.21;50.07;94433.56;4976913;28;20266;-64